プンタアレナス の空港の天気 - METARとTAF

プンタアレナス空港 ( SCCI / PUQ ) - チリ プンタアレナス
飛行場実況気象(Metar)
観測時間04/21 13:00 CLT (04/21 17:00 UTC)
風向・風速南西 13m/s
視程10km以上
天気現象
少しの雲 雲底高度 760m
全天の4割程度の雲 雲底高度 6100m
気温11℃
湿度62%
気圧1013hPa
METARSCCI 211700Z 23025KT 9999 FEW025 SCT200 11/04 Q1013 NOSIG
過去の天気等 Google飛行場航空写真 Wunderground天気予報

過去48時間のMETAR

飛行場予報(TAF)
発表時間: 4/21 06:32 CLT (4/21 10:32 UTC)
予報対象時間: 21日8時 CLT ~ 22日8時 CLT
風向・風速西南西 8m/s 瞬間風速 13m/s
視程10km以上
少しの雲 雲底高度 1220m
21日8時 CLT ~ 21日10時 CLT に一時的に
風向・風速南南西 5m/s
少しの雲 雲底高度 1070m
全天の8割程度の雲 雲底高度 1370m
21日16時 CLT ~ 21日18時 CLT に徐々に
風向・風速西 5m/s
22日0時 CLT ~ 22日2時 CLT に徐々に
風向・風速西北西 3m/s
視程9000m
少しの雲 雲底高度 460m
全天の4割程度の雲 雲底高度 760m
22日0時 CLT ~ 22日5時 CLT に 確率 30% で一時的に
風向・風速不定 2m/s
視程5000m
天気現象もや
全天の4割程度の雲 雲底高度 300m
22日6時 CLT ~ 22日8時 CLT に徐々に
風向・風速西北西 6m/s 瞬間風速 12m/s
TAF SCCI 211032Z 2112/2212 24016G26KT 9999 FEW040 TX11/2118Z TN04/2210Z
TEMPO 2112/2114 20010KT FEW035 BKN045
BECMG 2120/2122 27010KT
BECMG 2204/2206 30005KT 9000 FEW015 SCT025
PROB30 TEMPO 2204/2209 VRB04KT 5000 BR SCT010
BECMG 2210/2212 30012G23KT